CFG9PH LIPZ-EDDF
Flight info
| Callsign | CFG9PH |
|---|---|
| Flight time | 0h 57m |
| Altitude | 30000 |
| Route | ROKIB DCT GIKEB DCT BRENO M726 ERNAS T161 DEBHI DEBHI1B |
| Aircraft | A320/M-SDE1E3FGHIJ1LORVWXYZ/LB1 |
Departure
| Time | 2026-05-06 08:25 |
|---|---|
| Airport | Venice Marco Polo Airport (LIPZ) |
Arrival
| Time | 2026-05-06 09:23 |
|---|---|
| Airport | Frankfurt Main Airport (EDDF) |
| Time | Latitude | Longitude | Altitude | Speed | Heading |
|---|---|---|---|---|---|
| 2026-05-06 07:55 | 45.50548 | 12.34213 | 16 ft | 0 kts | 267° |
| 2026-05-06 08:15 | 45.50548 | 12.34228 | 17 ft | 4 kts | 267° |
| 2026-05-06 08:15 | 45.50549 | 12.34266 | 19 ft | 4 kts | 265° |
| 2026-05-06 08:15 | 45.50554 | 12.34303 | 18 ft | 4 kts | 245° |
| 2026-05-06 08:16 | 45.50569 | 12.34331 | 17 ft | 4 kts | 201° |
| 2026-05-06 08:16 | 45.50583 | 12.34335 | 15 ft | 1 kts | 176° |
| 2026-05-06 08:16 | 45.50585 | 12.34335 | 15 ft | 0 kts | 176° |
| 2026-05-06 08:18 | 45.50579 | 12.34336 | 15 ft | 3 kts | 176° |
| 2026-05-06 08:18 | 45.50566 | 12.34337 | 17 ft | 5 kts | 177° |
| 2026-05-06 08:19 | 45.50528 | 12.34339 | 16 ft | 5 kts | 177° |
| 2026-05-06 08:19 | 45.50499 | 12.34342 | 16 ft | 6 kts | 178° |
| 2026-05-06 08:19 | 45.50445 | 12.34344 | 18 ft | 10 kts | 178° |
| 2026-05-06 08:19 | 45.50379 | 12.34348 | 21 ft | 6 kts | 177° |
| 2026-05-06 08:20 | 45.50325 | 12.34352 | 21 ft | 9 kts | 177° |
| 2026-05-06 08:20 | 45.50258 | 12.34306 | 20 ft | 15 kts | 223° |
| 2026-05-06 08:20 | 45.50178 | 12.34202 | 18 ft | 17 kts | 222° |
| 2026-05-06 08:20 | 45.50081 | 12.34079 | 16 ft | 20 kts | 221° |
| 2026-05-06 08:21 | 45.49985 | 12.33957 | 15 ft | 15 kts | 222° |
| 2026-05-06 08:21 | 45.49908 | 12.33858 | 16 ft | 15 kts | 221° |
| 2026-05-06 08:21 | 45.49840 | 12.33770 | 16 ft | 12 kts | 223° |
| 2026-05-06 08:21 | 45.49787 | 12.33701 | 19 ft | 7 kts | 221° |
| 2026-05-06 08:22 | 45.49754 | 12.33667 | 21 ft | 5 kts | 213° |
| 2026-05-06 08:22 | 45.49707 | 12.33631 | 18 ft | 10 kts | 207° |
| 2026-05-06 08:22 | 45.49647 | 12.33567 | 18 ft | 10 kts | 220° |
| 2026-05-06 08:22 | 45.49604 | 12.33520 | 19 ft | 6 kts | 205° |
| 2026-05-06 08:23 | 45.49567 | 12.33521 | 20 ft | 5 kts | 156° |
| 2026-05-06 08:23 | 45.49531 | 12.33572 | 18 ft | 10 kts | 132° |
| 2026-05-06 08:23 | 45.49495 | 12.33628 | 18 ft | 8 kts | 132° |
| 2026-05-06 08:23 | 45.49453 | 12.33694 | 17 ft | 11 kts | 132° |
| 2026-05-06 08:24 | 45.49425 | 12.33779 | 15 ft | 8 kts | 81° |
| 2026-05-06 08:24 | 45.49459 | 12.33837 | 15 ft | 10 kts | 41° |
| 2026-05-06 08:24 | 45.49617 | 12.34040 | 13 ft | 68 kts | 42° |
| 2026-05-06 08:24 | 45.50163 | 12.34740 | 16 ft | 139 kts | 42° |
| 2026-05-06 08:25 | 45.50986 | 12.35811 | 379 ft | 164 kts | 44° |
| 2026-05-06 08:25 | 45.51809 | 12.36908 | 1252 ft | 161 kts | 47° |
| 2026-05-06 08:25 | 45.52616 | 12.38003 | 2075 ft | 159 kts | 48° |
| 2026-05-06 08:25 | 45.53319 | 12.39178 | 2752 ft | 154 kts | 70° |
| 2026-05-06 08:26 | 45.53612 | 12.40602 | 3355 ft | 151 kts | 89° |
| 2026-05-06 08:26 | 45.53544 | 12.42153 | 3754 ft | 163 kts | 105° |
| 2026-05-06 08:26 | 45.53318 | 12.43799 | 4228 ft | 176 kts | 103° |
| 2026-05-06 08:26 | 45.53111 | 12.45618 | 4630 ft | 194 kts | 102° |
| 2026-05-06 08:27 | 45.52904 | 12.47601 | 5104 ft | 208 kts | 101° |
| 2026-05-06 08:27 | 45.52679 | 12.49669 | 5746 ft | 212 kts | 107° |
| 2026-05-06 08:27 | 45.52011 | 12.51491 | 6415 ft | 211 kts | 135° |
| 2026-05-06 08:27 | 45.50798 | 12.52647 | 7047 ft | 214 kts | 162° |
| 2026-05-06 08:28 | 45.49264 | 12.52832 | 7484 ft | 231 kts | 193° |
| 2026-05-06 08:28 | 45.47742 | 12.52042 | 8339 ft | 236 kts | 207° |
| 2026-05-06 08:28 | 45.46446 | 12.50583 | 9512 ft | 241 kts | 229° |
| 2026-05-06 08:28 | 45.45623 | 12.48434 | 10405 ft | 262 kts | 252° |
| 2026-05-06 08:29 | 45.45408 | 12.45722 | 10956 ft | 289 kts | 264° |
| 2026-05-06 08:29 | 45.45313 | 12.42784 | 11340 ft | 313 kts | 265° |
| 2026-05-06 08:29 | 45.45217 | 12.39607 | 11875 ft | 327 kts | 265° |
| 2026-05-06 08:29 | 45.45365 | 12.36339 | 12647 ft | 338 kts | 280° |
| 2026-05-06 08:30 | 45.46329 | 12.33232 | 13469 ft | 352 kts | 301° |
| 2026-05-06 08:30 | 45.48023 | 12.30642 | 14245 ft | 362 kts | 312° |
| 2026-05-06 08:30 | 45.49870 | 12.28159 | 14983 ft | 366 kts | 312° |
| 2026-05-06 08:30 | 45.51750 | 12.25671 | 15701 ft | 371 kts | 313° |
| 2026-05-06 08:31 | 45.53637 | 12.23181 | 16404 ft | 376 kts | 312° |
| 2026-05-06 08:31 | 45.55589 | 12.20591 | 17087 ft | 381 kts | 312° |
| 2026-05-06 08:31 | 45.57513 | 12.18027 | 17800 ft | 385 kts | 312° |
| 2026-05-06 08:31 | 45.59485 | 12.15386 | 18503 ft | 391 kts | 311° |
| 2026-05-06 08:32 | 45.61480 | 12.12704 | 19230 ft | 396 kts | 310° |
| 2026-05-06 08:32 | 45.63497 | 12.09994 | 19975 ft | 399 kts | 310° |
| 2026-05-06 08:32 | 45.65530 | 12.07258 | 20668 ft | 403 kts | 310° |
| 2026-05-06 08:32 | 45.67577 | 12.04497 | 21333 ft | 406 kts | 310° |
| 2026-05-06 08:33 | 45.69639 | 12.01714 | 21990 ft | 409 kts | 310° |
| 2026-05-06 08:33 | 45.71718 | 11.98906 | 22625 ft | 412 kts | 310° |
| 2026-05-06 08:33 | 45.73806 | 11.96082 | 23255 ft | 415 kts | 310° |
| 2026-05-06 08:33 | 45.75889 | 11.93261 | 23786 ft | 419 kts | 310° |
| 2026-05-06 08:34 | 45.78016 | 11.90380 | 24285 ft | 422 kts | 310° |
| 2026-05-06 08:34 | 45.82300 | 11.84562 | 25315 ft | 426 kts | 309° |
| 2026-05-06 08:34 | 45.84454 | 11.81631 | 25824 ft | 428 kts | 309° |
| 2026-05-06 08:35 | 45.86624 | 11.78680 | 26333 ft | 430 kts | 309° |
| 2026-05-06 08:35 | 45.88062 | 11.76719 | 26651 ft | 432 kts | 309° |
| 2026-05-06 08:35 | 45.90257 | 11.73756 | 27120 ft | 436 kts | 311° |
| 2026-05-06 08:35 | 45.93612 | 11.70400 | 27681 ft | 452 kts | 325° |
| 2026-05-06 08:36 | 45.96526 | 11.68578 | 28140 ft | 464 kts | 335° |
| 2026-05-06 08:36 | 45.98654 | 11.67748 | 28452 ft | 471 kts | 342° |
| 2026-05-06 08:36 | 46.01884 | 11.66830 | 28880 ft | 475 kts | 342° |
| 2026-05-06 08:36 | 46.05092 | 11.65910 | 29239 ft | 478 kts | 342° |
| 2026-05-06 08:37 | 46.08360 | 11.64966 | 29623 ft | 480 kts | 342° |
| 2026-05-06 08:37 | 46.11642 | 11.64009 | 30025 ft | 482 kts | 342° |
| 2026-05-06 08:37 | 46.14941 | 11.63046 | 30349 ft | 484 kts | 342° |
| 2026-05-06 08:37 | 46.18249 | 11.62083 | 30642 ft | 486 kts | 342° |
| 2026-05-06 08:38 | 46.21570 | 11.61107 | 30862 ft | 487 kts | 341° |
| 2026-05-06 08:38 | 46.24894 | 11.60110 | 31115 ft | 489 kts | 341° |
| 2026-05-06 08:38 | 46.28229 | 11.59096 | 31356 ft | 490 kts | 341° |
| 2026-05-06 08:38 | 46.31572 | 11.58075 | 31677 ft | 489 kts | 341° |
| 2026-05-06 08:39 | 46.34904 | 11.57059 | 31989 ft | 489 kts | 341° |
| 2026-05-06 08:39 | 46.38236 | 11.56045 | 32374 ft | 488 kts | 341° |
| 2026-05-06 08:39 | 46.41561 | 11.55031 | 32743 ft | 487 kts | 341° |
| 2026-05-06 08:39 | 46.44870 | 11.54021 | 33145 ft | 485 kts | 341° |
| 2026-05-06 08:40 | 46.48130 | 11.53026 | 33539 ft | 484 kts | 340° |
| 2026-05-06 08:40 | 46.51422 | 11.52023 | 33925 ft | 483 kts | 340° |
| 2026-05-06 08:40 | 46.54711 | 11.51022 | 34258 ft | 482 kts | 340° |
| 2026-05-06 08:40 | 46.57999 | 11.50022 | 34572 ft | 481 kts | 340° |
| 2026-05-06 08:41 | 46.61281 | 11.49021 | 34914 ft | 480 kts | 341° |
| 2026-05-06 08:41 | 46.64540 | 11.48021 | 35252 ft | 478 kts | 341° |
| 2026-05-06 08:41 | 46.67791 | 11.47021 | 35557 ft | 476 kts | 341° |
| 2026-05-06 08:41 | 46.71026 | 11.46021 | 35883 ft | 474 kts | 341° |
| 2026-05-06 08:42 | 46.74210 | 11.45037 | 36190 ft | 473 kts | 341° |
| 2026-05-06 08:42 | 46.77435 | 11.44038 | 36545 ft | 472 kts | 342° |
| 2026-05-06 08:42 | 46.80651 | 11.43042 | 36842 ft | 471 kts | 342° |
| 2026-05-06 08:42 | 46.83855 | 11.42053 | 37143 ft | 469 kts | 343° |
| 2026-05-06 08:43 | 46.87040 | 11.41071 | 37435 ft | 468 kts | 343° |
| 2026-05-06 08:43 | 46.90236 | 11.40082 | 37704 ft | 468 kts | 343° |
| 2026-05-06 08:43 | 46.93421 | 11.39093 | 37869 ft | 468 kts | 343° |
| 2026-05-06 08:44 | 46.99847 | 11.37897 | 37870 ft | 474 kts | 358° |
| 2026-05-06 08:44 | 47.06441 | 11.38527 | 37871 ft | 476 kts | 0° |
| 2026-05-06 08:45 | 47.13058 | 11.39195 | 37819 ft | 477 kts | 0° |
| 2026-05-06 08:45 | 47.19688 | 11.39861 | 37810 ft | 477 kts | 0° |
| 2026-05-06 08:46 | 47.26314 | 11.40397 | 37825 ft | 477 kts | 358° |
| 2026-05-06 08:46 | 47.32959 | 11.40414 | 37802 ft | 477 kts | 355° |
| 2026-05-06 08:47 | 47.39563 | 11.40252 | 37799 ft | 478 kts | 355° |
| 2026-05-06 08:47 | 47.46235 | 11.40129 | 37812 ft | 479 kts | 356° |
| 2026-05-06 08:48 | 47.52919 | 11.40047 | 37800 ft | 480 kts | 356° |
| 2026-05-06 08:48 | 47.59602 | 11.39996 | 37805 ft | 480 kts | 356° |
| 2026-05-06 08:49 | 47.66284 | 11.39700 | 37830 ft | 479 kts | 352° |
| 2026-05-06 08:49 | 47.72868 | 11.38761 | 37836 ft | 478 kts | 349° |
| 2026-05-06 08:50 | 47.79489 | 11.37651 | 37824 ft | 479 kts | 350° |
| 2026-05-06 08:50 | 47.86145 | 11.36672 | 37834 ft | 480 kts | 351° |
| 2026-05-06 08:51 | 47.92827 | 11.36021 | 37848 ft | 482 kts | 353° |
| 2026-05-06 08:51 | 47.99549 | 11.35576 | 37847 ft | 482 kts | 354° |
| 2026-05-06 08:52 | 48.06208 | 11.35091 | 37847 ft | 482 kts | 353° |
| 2026-05-06 08:52 | 48.12869 | 11.34128 | 37854 ft | 479 kts | 348° |
| 2026-05-06 08:53 | 48.19473 | 11.32672 | 37847 ft | 479 kts | 347° |
| 2026-05-06 08:53 | 48.26073 | 11.31216 | 37847 ft | 479 kts | 348° |
| 2026-05-06 08:54 | 48.32674 | 11.30034 | 37849 ft | 481 kts | 350° |
| 2026-05-06 08:54 | 48.39339 | 11.29093 | 37847 ft | 481 kts | 351° |
| 2026-05-06 08:55 | 48.46007 | 11.28125 | 37867 ft | 481 kts | 350° |
| 2026-05-06 08:55 | 48.52672 | 11.27066 | 37862 ft | 481 kts | 350° |
| 2026-05-06 08:56 | 48.59292 | 11.25982 | 37852 ft | 481 kts | 350° |
| 2026-05-06 08:56 | 48.65965 | 11.24900 | 37854 ft | 482 kts | 350° |
| 2026-05-06 08:57 | 48.72636 | 11.23841 | 37852 ft | 482 kts | 350° |
| 2026-05-06 08:57 | 48.79295 | 11.22661 | 37858 ft | 478 kts | 344° |
| 2026-05-06 08:58 | 48.85414 | 11.19328 | 37853 ft | 466 kts | 326° |
| 2026-05-06 08:58 | 48.90522 | 11.13537 | 37849 ft | 454 kts | 311° |
| 2026-05-06 08:59 | 48.95179 | 11.07022 | 37791 ft | 455 kts | 312° |
| 2026-05-06 08:59 | 48.97514 | 11.03764 | 37506 ft | 454 kts | 312° |
| 2026-05-06 08:59 | 48.99838 | 11.00518 | 36761 ft | 453 kts | 311° |
| 2026-05-06 08:59 | 49.02156 | 10.97275 | 35926 ft | 453 kts | 311° |
| 2026-05-06 09:00 | 49.04445 | 10.94062 | 35066 ft | 453 kts | 311° |
| 2026-05-06 09:00 | 49.06760 | 10.90797 | 34177 ft | 454 kts | 310° |
| 2026-05-06 09:00 | 49.09078 | 10.87525 | 33111 ft | 455 kts | 310° |
| 2026-05-06 09:00 | 49.11414 | 10.84226 | 31985 ft | 457 kts | 310° |
| 2026-05-06 09:01 | 49.13754 | 10.80915 | 30848 ft | 460 kts | 310° |
| 2026-05-06 09:01 | 49.16099 | 10.77589 | 30084 ft | 456 kts | 310° |
| 2026-05-06 09:01 | 49.18409 | 10.74323 | 29369 ft | 449 kts | 310° |
| 2026-05-06 09:01 | 49.20666 | 10.71096 | 28694 ft | 440 kts | 309° |
| 2026-05-06 09:02 | 49.22807 | 10.67872 | 28028 ft | 433 kts | 308° |
| 2026-05-06 09:02 | 49.24892 | 10.64583 | 27345 ft | 428 kts | 307° |
| 2026-05-06 09:02 | 49.26931 | 10.61285 | 26694 ft | 423 kts | 307° |
| 2026-05-06 09:02 | 49.28937 | 10.58020 | 26058 ft | 419 kts | 308° |
| 2026-05-06 09:03 | 49.30930 | 10.54792 | 25425 ft | 415 kts | 308° |
| 2026-05-06 09:03 | 49.32917 | 10.51610 | 24804 ft | 411 kts | 309° |
| 2026-05-06 09:03 | 49.34892 | 10.48474 | 24203 ft | 407 kts | 310° |
| 2026-05-06 09:03 | 49.36720 | 10.45204 | 23609 ft | 399 kts | 302° |
| 2026-05-06 09:04 | 49.38301 | 10.41740 | 23212 ft | 396 kts | 301° |
| 2026-05-06 09:04 | 49.39880 | 10.38287 | 22797 ft | 394 kts | 301° |
| 2026-05-06 09:04 | 49.41452 | 10.34856 | 22404 ft | 392 kts | 301° |
| 2026-05-06 09:04 | 49.43019 | 10.31437 | 22021 ft | 391 kts | 301° |
| 2026-05-06 09:05 | 49.44582 | 10.28020 | 21606 ft | 389 kts | 301° |
| 2026-05-06 09:05 | 49.46110 | 10.24668 | 21219 ft | 387 kts | 301° |
| 2026-05-06 09:05 | 49.47649 | 10.21280 | 20820 ft | 386 kts | 301° |
| 2026-05-06 09:05 | 49.49182 | 10.17896 | 20431 ft | 384 kts | 301° |
| 2026-05-06 09:06 | 49.50707 | 10.14520 | 20041 ft | 383 kts | 301° |
| 2026-05-06 09:06 | 49.52228 | 10.11151 | 19648 ft | 381 kts | 302° |
| 2026-05-06 09:06 | 49.53741 | 10.07800 | 19259 ft | 379 kts | 301° |
| 2026-05-06 09:06 | 49.55221 | 10.04522 | 18880 ft | 376 kts | 301° |
| 2026-05-06 09:07 | 49.56712 | 10.01216 | 18493 ft | 374 kts | 301° |
| 2026-05-06 09:07 | 49.58194 | 9.97923 | 18114 ft | 373 kts | 301° |
| 2026-05-06 09:07 | 49.59665 | 9.94646 | 17697 ft | 371 kts | 301° |
| 2026-05-06 09:07 | 49.61134 | 9.91366 | 17333 ft | 369 kts | 301° |
| 2026-05-06 09:08 | 49.62590 | 9.88116 | 16948 ft | 367 kts | 301° |
| 2026-05-06 09:08 | 49.64017 | 9.84930 | 16579 ft | 364 kts | 301° |
| 2026-05-06 09:08 | 49.65454 | 9.81719 | 16208 ft | 362 kts | 301° |
| 2026-05-06 09:08 | 49.66882 | 9.78525 | 15839 ft | 361 kts | 301° |
| 2026-05-06 09:09 | 49.68302 | 9.75353 | 15465 ft | 359 kts | 301° |
| 2026-05-06 09:09 | 49.69717 | 9.72186 | 15101 ft | 357 kts | 301° |
| 2026-05-06 09:09 | 49.71119 | 9.69032 | 14736 ft | 355 kts | 301° |
| 2026-05-06 09:09 | 49.72514 | 9.65891 | 14376 ft | 353 kts | 301° |
| 2026-05-06 09:10 | 49.73898 | 9.62770 | 14022 ft | 351 kts | 301° |
| 2026-05-06 09:10 | 49.75282 | 9.59656 | 13658 ft | 349 kts | 301° |
| 2026-05-06 09:10 | 49.76654 | 9.56566 | 13273 ft | 347 kts | 300° |
| 2026-05-06 09:10 | 49.78017 | 9.53489 | 12917 ft | 345 kts | 300° |
| 2026-05-06 09:11 | 49.79370 | 9.50430 | 12569 ft | 343 kts | 301° |
| 2026-05-06 09:11 | 49.80714 | 9.47388 | 12221 ft | 341 kts | 301° |
| 2026-05-06 09:11 | 49.82027 | 9.44408 | 11876 ft | 338 kts | 301° |
| 2026-05-06 09:11 | 49.83346 | 9.41408 | 11535 ft | 336 kts | 301° |
| 2026-05-06 09:12 | 49.84658 | 9.38420 | 11193 ft | 334 kts | 301° |
| 2026-05-06 09:12 | 49.86121 | 9.35625 | 10841 ft | 336 kts | 313° |
| 2026-05-06 09:12 | 49.87848 | 9.33198 | 10468 ft | 335 kts | 315° |
| 2026-05-06 09:12 | 49.89571 | 9.30798 | 10050 ft | 331 kts | 315° |
| 2026-05-06 09:13 | 49.91258 | 9.28463 | 9626 ft | 314 kts | 315° |
| 2026-05-06 09:13 | 49.92841 | 9.26275 | 9228 ft | 296 kts | 315° |
| 2026-05-06 09:13 | 49.94352 | 9.24179 | 8833 ft | 288 kts | 315° |
| 2026-05-06 09:13 | 49.95840 | 9.22109 | 8448 ft | 286 kts | 315° |
| 2026-05-06 09:14 | 49.97310 | 9.20059 | 8063 ft | 282 kts | 314° |
| 2026-05-06 09:14 | 49.98719 | 9.18095 | 7683 ft | 269 kts | 314° |
| 2026-05-06 09:14 | 50.00077 | 9.16202 | 7306 ft | 256 kts | 314° |
| 2026-05-06 09:14 | 50.01378 | 9.14379 | 6944 ft | 247 kts | 314° |
| 2026-05-06 09:15 | 50.02636 | 9.12610 | 6569 ft | 241 kts | 314° |
| 2026-05-06 09:15 | 50.03879 | 9.10864 | 6206 ft | 240 kts | 314° |
| 2026-05-06 09:15 | 50.05121 | 9.09120 | 5819 ft | 241 kts | 314° |
| 2026-05-06 09:15 | 50.06345 | 9.07348 | 5430 ft | 239 kts | 309° |
| 2026-05-06 09:16 | 50.07345 | 9.05307 | 5054 ft | 236 kts | 300° |
| 2026-05-06 09:16 | 50.08259 | 9.03184 | 4669 ft | 236 kts | 301° |
| 2026-05-06 09:16 | 50.09173 | 9.01074 | 4289 ft | 235 kts | 301° |
| 2026-05-06 09:16 | 50.10081 | 8.98982 | 4016 ft | 229 kts | 301° |
| 2026-05-06 09:17 | 50.10960 | 8.96964 | 4004 ft | 220 kts | 301° |
| 2026-05-06 09:17 | 50.11770 | 8.94957 | 4004 ft | 217 kts | 290° |
| 2026-05-06 09:17 | 50.11990 | 8.92687 | 4004 ft | 211 kts | 261° |
| 2026-05-06 09:17 | 50.11567 | 8.90527 | 4001 ft | 209 kts | 249° |
| 2026-05-06 09:18 | 50.11058 | 8.88410 | 4001 ft | 208 kts | 248° |
| 2026-05-06 09:18 | 50.10556 | 8.86329 | 3975 ft | 209 kts | 249° |
| 2026-05-06 09:18 | 50.10052 | 8.84202 | 3770 ft | 210 kts | 249° |
| 2026-05-06 09:18 | 50.09551 | 8.82076 | 3506 ft | 208 kts | 249° |
| 2026-05-06 09:19 | 50.09056 | 8.79977 | 3232 ft | 205 kts | 249° |
| 2026-05-06 09:19 | 50.08566 | 8.77901 | 2959 ft | 203 kts | 249° |
| 2026-05-06 09:19 | 50.08080 | 8.75844 | 2693 ft | 201 kts | 248° |
| 2026-05-06 09:19 | 50.07664 | 8.73817 | 2367 ft | 193 kts | 255° |
| 2026-05-06 09:20 | 50.07474 | 8.71782 | 2052 ft | 183 kts | 262° |
| 2026-05-06 09:20 | 50.07307 | 8.69906 | 1806 ft | 166 kts | 255° |
| 2026-05-06 09:20 | 50.06953 | 8.68317 | 1653 ft | 144 kts | 245° |
| 2026-05-06 09:20 | 50.06583 | 8.66977 | 1549 ft | 130 kts | 245° |
| 2026-05-06 09:21 | 50.06255 | 8.65692 | 1268 ft | 126 kts | 246° |
| 2026-05-06 09:21 | 50.05943 | 8.64461 | 1137 ft | 121 kts | 245° |
| 2026-05-06 09:21 | 50.05632 | 8.63241 | 1020 ft | 121 kts | 243° |
| 2026-05-06 09:21 | 50.05321 | 8.62029 | 843 ft | 122 kts | 245° |
| 2026-05-06 09:22 | 50.05012 | 8.60750 | 720 ft | 126 kts | 245° |
| 2026-05-06 09:22 | 50.04715 | 8.59495 | 517 ft | 122 kts | 244° |
| 2026-05-06 09:22 | 50.04413 | 8.58275 | 394 ft | 120 kts | 244° |
| 2026-05-06 09:22 | 50.04149 | 8.57183 | 367 ft | 88 kts | 250° |
| 2026-05-06 09:23 | 50.03996 | 8.56536 | 359 ft | 47 kts | 249° |
| 2026-05-06 09:23 | 50.03898 | 8.56124 | 354 ft | 21 kts | 254° |
| 2026-05-06 09:23 | 50.03885 | 8.55918 | 351 ft | 17 kts | 272° |
| 2026-05-06 09:23 | 50.03893 | 8.55782 | 353 ft | 2 kts | 279° |
| 2026-05-06 09:24 | 50.03899 | 8.55735 | 353 ft | 8 kts | 279° |
| 2026-05-06 09:24 | 50.03910 | 8.55659 | 354 ft | 7 kts | 294° |
| 2026-05-06 09:24 | 50.03950 | 8.55632 | 348 ft | 6 kts | 3° |
| 2026-05-06 09:24 | 50.03977 | 8.55661 | 351 ft | 4 kts | 54° |
| 2026-05-06 09:25 | 50.03986 | 8.55692 | 349 ft | 3 kts | 68° |
| 2026-05-06 09:25 | 50.03993 | 8.55719 | 352 ft | 4 kts | 69° |
| 2026-05-06 09:25 | 50.04023 | 8.55847 | 355 ft | 16 kts | 70° |
| 2026-05-06 09:25 | 50.04060 | 8.55999 | 353 ft | 14 kts | 69° |
| 2026-05-06 09:26 | 50.04093 | 8.56137 | 353 ft | 13 kts | 69° |
| 2026-05-06 09:26 | 50.04117 | 8.56240 | 358 ft | 3 kts | 69° |
| 2026-05-06 09:26 | 50.04123 | 8.56264 | 355 ft | 2 kts | 69° |
| 2026-05-06 09:26 | 50.04155 | 8.56289 | 353 ft | 9 kts | 356° |
| 2026-05-06 09:27 | 50.04189 | 8.56271 | 358 ft | 7 kts | 339° |
| 2026-05-06 09:27 | 50.04231 | 8.56247 | 360 ft | 5 kts | 340° |
| 2026-05-06 09:27 | 50.04273 | 8.56222 | 356 ft | 4 kts | 334° |
| 2026-05-06 09:27 | 50.04288 | 8.56190 | 357 ft | 5 kts | 292° |
| 2026-05-06 09:28 | 50.04290 | 8.56138 | 355 ft | 10 kts | 272° |
| 2026-05-06 09:28 | 50.04324 | 8.56066 | 362 ft | 6 kts | 339° |
| 2026-05-06 09:28 | 50.04361 | 8.56045 | 361 ft | 6 kts | 339° |
| 2026-05-06 09:28 | 50.04397 | 8.56027 | 361 ft | 5 kts | 348° |
| 2026-05-06 09:29 | 50.04434 | 8.56051 | 359 ft | 7 kts | 48° |
| 2026-05-06 09:29 | 50.04454 | 8.56123 | 358 ft | 7 kts | 70° |
| 2026-05-06 09:29 | 50.04472 | 8.56200 | 363 ft | 8 kts | 70° |
| 2026-05-06 09:29 | 50.04492 | 8.56278 | 357 ft | 8 kts | 60° |
| 2026-05-06 09:30 | 50.04536 | 8.56295 | 358 ft | 5 kts | 350° |
| 2026-05-06 09:30 | 50.04546 | 8.56296 | 356 ft | 1 kts | 3° |
| 2026-05-06 09:30 | 50.04552 | 8.56299 | 356 ft | 2 kts | 17° |
| 2026-05-06 09:30 | 50.04561 | 8.56308 | 356 ft | 0 kts | 36° |